Time;durP1;ratioP1;P1;durP2;ratioP2;P2;SDS_P1;SDS_P2;PMS_P1;PMS_P2;Temp;Humidity;BMP_temperature;BMP_pressure;BME280_temperature;BME280_humidity;BME280_pressure;Samples;Min_cycle;Max_cycle;Signal;HPM_P1;HPM_P2
2022/04/27 00:02:24;;;;;;;4.50;2.70;;;;;;;;;;5075638;28;20119;-76
2022/04/27 00:04:52;;;;;;;7.05;3.33;;;;;;;;;;5075316;28;20037;-76
2022/04/27 00:14:08;;;;;;;4.93;3.40;;;;;;;;;;5073555;28;20072;-76
2022/04/27 00:16:43;;;;;;;6.03;3.47;;;;;;;;;;5072525;28;20040;-76
2022/04/27 00:19:10;;;;;;;4.65;3.13;;;;;;;;;;5074917;28;20064;-75
2022/04/27 00:21:42;;;;;;;6.15;3.35;;;;;;;;;;5074312;28;20048;-75
2022/04/27 00:24:14;;;;;;;4.90;3.47;;;;;;;;;;5074520;28;20041;-75
2022/04/27 00:26:47;;;;;;;5.43;3.22;;;;;;;;;;5073133;28;20045;-76
2022/04/27 00:29:40;;;;;;;4.78;3.33;;;;;;;;;;5073041;28;20541;-76
2022/04/27 00:32:37;;;;;;;7.45;3.50;;;;;;;;;;5074459;28;20041;-75
2022/04/27 00:35:08;;;;;;;6.03;3.50;;;;;;;;;;5072965;28;20574;-76
2022/04/27 00:37:45;;;;;;;8.40;4.05;;;;;;;;;;5074332;28;20090;-76
2022/04/27 00:40:17;;;;;;;3.97;3.13;;;;;;;;;;5072979;28;20045;-75
2022/04/27 00:42:50;;;;;;;3.75;3.13;;;;;;;;;;5072218;28;20509;-76
2022/04/27 00:45:23;;;;;;;7.72;3.55;;;;;;;;;;5072667;28;20052;-76
2022/04/27 00:47:51;;;;;;;9.05;3.67;;;;;;;;;;5071841;28;20040;-75
2022/04/27 00:50:24;;;;;;;8.25;3.60;;;;;;;;;;5074159;28;20039;-75
2022/04/27 00:52:59;;;;;;;5.60;3.40;;;;;;;;;;5073498;28;20075;-76
2022/04/27 00:55:30;;;;;;;6.80;3.53;;;;;;;;;;5072411;28;20045;-75
2022/04/27 00:58:01;;;;;;;6.60;4.00;;;;;;;;;;5072728;28;20059;-75
2022/04/27 01:00:33;;;;;;;4.63;3.20;;;;;;;;;;5073657;28;20055;-75
2022/04/27 01:03:01;;;;;;;5.05;3.60;;;;;;;;;;5073593;28;20387;-75
2022/04/27 01:05:40;;;;;;;4.95;3.70;;;;;;;;;;5072465;28;20429;-74
2022/04/27 01:08:11;;;;;;;11.38;4.32;;;;;;;;;;5072104;28;20059;-74
2022/04/27 01:10:43;;;;;;;8.00;3.88;;;;;;;;;;5071972;28;20445;-74
2022/04/27 01:13:12;;;;;;;7.53;3.72;;;;;;;;;;5074191;28;20048;-74
2022/04/27 01:15:45;;;;;;;4.85;3.90;;;;;;;;;;5072109;28;20075;-74
2022/04/27 01:18:16;;;;;;;4.15;3.40;;;;;;;;;;5073517;28;20094;-75
2022/04/27 01:20:47;;;;;;;5.25;3.67;;;;;;;;;;5072438;28;20072;-76
2022/04/27 01:23:19;;;;;;;5.68;4.05;;;;;;;;;;5072023;28;20094;-75
2022/04/27 01:26:05;;;;;;;4.97;3.63;;;;;;;;;;5073607;28;20036;-76
2022/04/27 01:28:40;;;;;;;6.97;4.15;;;;;;;;;;5073254;28;20128;-76
2022/04/27 01:31:08;;;;;;;6.15;4.05;;;;;;;;;;5071922;28;20044;-76
2022/04/27 01:33:41;;;;;;;5.25;4.03;;;;;;;;;;5071977;28;20043;-75
2022/04/27 01:36:15;;;;;;;6.20;4.30;;;;;;;;;;5071916;28;20052;-74
2022/04/27 01:38:44;;;;;;;6.87;4.80;;;;;;;;;;5073284;28;20049;-74
2022/04/27 01:41:14;;;;;;;8.02;4.40;;;;;;;;;;5073101;28;20276;-74
2022/04/27 01:44:07;;;;;;;6.47;4.65;;;;;;;;;;5071316;28;20040;-74
2022/04/27 01:46:35;;;;;;;7.50;4.40;;;;;;;;;;5073165;28;20510;-74
2022/04/27 01:49:14;;;;;;;7.65;4.95;;;;;;;;;;5072656;28;20037;-74
2022/04/27 01:54:35;;;;;;;9.38;4.93;;;;;;;;;;5071913;28;20415;-74
2022/04/27 01:57:11;;;;;;;8.05;5.15;;;;;;;;;;5073084;28;20043;-74
2022/04/27 01:59:41;;;;;;;7.75;4.85;;;;;;;;;;5057082;28;20131;-74
2022/04/27 02:02:14;;;;;;;5.68;4.55;;;;;;;;;;5076044;28;20489;-74
2022/04/27 02:04:46;;;;;;;6.38;4.85;;;;;;;;;;5075704;28;20064;-74
2022/04/27 02:07:23;;;;;;;6.00;4.57;;;;;;;;;;5076094;28;20036;-74
2022/04/27 02:09:51;;;;;;;7.05;4.75;;;;;;;;;;5075351;28;20494;-74
2022/04/27 02:12:23;;;;;;;7.57;4.50;;;;;;;;;;5077032;28;20066;-75
2022/04/27 02:15:09;;;;;;;7.05;4.57;;;;;;;;;;5075233;28;20044;-74
2022/04/27 02:17:41;;;;;;;8.55;4.40;;;;;;;;;;5075659;28;20395;-74
2022/04/27 02:20:10;;;;;;;5.20;4.30;;;;;;;;;;5076781;28;20045;-74
2022/04/27 02:22:40;;;;;;;6.47;4.80;;;;;;;;;;5075210;28;20421;-74
2022/04/27 02:25:12;;;;;;;7.32;5.07;;;;;;;;;;5075688;28;20509;-74
2022/04/27 02:31:40;;;;;;;7.25;5.35;;;;;;;;;;5076632;28;20112;-74
2022/04/27 02:34:13;;;;;;;7.68;5.38;;;;;;;;;;5075409;28;20049;-74
2022/04/27 02:36:42;;;;;;;8.23;5.03;;;;;;;;;;5075155;28;20140;-74
2022/04/27 02:39:35;;;;;;;8.30;4.57;;;;;;;;;;5076333;28;20043;-74
2022/04/27 02:42:28;;;;;;;7.78;4.80;;;;;;;;;;5075400;28;20049;-75
2022/04/27 02:44:57;;;;;;;9.63;5.05;;;;;;;;;;5073432;28;20465;-74
2022/04/27 02:47:50;;;;;;;8.65;4.68;;;;;;;;;;5074784;28;20131;-74
2022/04/27 02:53:30;;;;;;;6.47;4.95;;;;;;;;;;5074435;28;20071;-74
2022/04/27 02:55:59;;;;;;;12.38;5.88;;;;;;;;;;5074756;28;20135;-75
2022/04/27 02:58:30;;;;;;;8.50;4.85;;;;;;;;;;5076137;28;20063;-74
2022/04/27 03:00:58;;;;;;;7.03;4.72;;;;;;;;;;5074886;28;20064;-75
2022/04/27 03:03:33;;;;;;;7.15;4.97;;;;;;;;;;5074402;28;20047;-75
2022/04/27 03:06:07;;;;;;;7.35;5.28;;;;;;;;;;5074672;28;20155;-74
2022/04/27 03:08:35;;;;;;;7.93;4.40;;;;;;;;;;5076221;28;20059;-74
2022/04/27 03:11:03;;;;;;;6.00;4.85;;;;;;;;;;5075216;28;20032;-74
2022/04/27 03:14:16;;;;;;;8.95;5.10;;;;;;;;;;5074371;28;20074;-74
2022/04/27 03:16:48;;;;;;;8.80;5.00;;;;;;;;;;5074569;28;20055;-74
2022/04/27 03:19:15;;;;;;;6.72;4.82;;;;;;;;;;5075851;28;20414;-74
2022/04/27 03:21:44;;;;;;;10.90;5.22;;;;;;;;;;5075324;28;20036;-75
2022/04/27 03:24:12;;;;;;;8.98;5.57;;;;;;;;;;5074135;28;20052;-75
2022/04/27 03:26:41;;;;;;;8.27;5.38;;;;;;;;;;5074868;28;20043;-75
2022/04/27 03:29:18;;;;;;;7.18;5.53;;;;;;;;;;5074184;28;20131;-75
2022/04/27 03:31:52;;;;;;;8.93;5.50;;;;;;;;;;5073989;28;20380;-74
2022/04/27 03:40:46;;;;;;;10.38;6.20;;;;;;;;;;5073867;28;20052;-74
2022/04/27 03:43:19;;;;;;;11.27;5.60;;;;;;;;;;5073568;28;20135;-74
2022/04/27 03:45:48;;;;;;;9.45;6.45;;;;;;;;;;5072604;28;20059;-74
2022/04/27 03:48:16;;;;;;;7.78;5.93;;;;;;;;;;5073974;28;20041;-76
2022/04/27 03:50:45;;;;;;;9.95;5.65;;;;;;;;;;5073957;28;20037;-76
2022/04/27 03:53:13;;;;;;;7.07;5.20;;;;;;;;;;5073881;28;20041;-77
2022/04/27 03:55:44;;;;;;;10.10;5.07;;;;;;;;;;5075412;28;20040;-78
2022/04/27 03:58:12;;;;;;;8.45;5.32;;;;;;;;;;5073776;28;20056;-78
2022/04/27 04:00:42;;;;;;;8.77;5.20;;;;;;;;;;5073693;28;20036;-78
2022/04/27 04:03:21;;;;;;;6.22;5.20;;;;;;;;;;5073895;28;20049;-77
2022/04/27 04:05:57;;;;;;;7.88;4.85;;;;;;;;;;5073701;28;20041;-77
2022/04/27 04:08:58;;;;;;;7.50;5.28;;;;;;;;;;5073870;28;20052;-77
2022/04/27 04:11:51;;;;;;;7.82;5.00;;;;;;;;;;5073389;28;20072;-77
2022/04/27 04:14:23;;;;;;;8.05;5.35;;;;;;;;;;5074455;28;20414;-76
2022/04/27 04:16:53;;;;;;;9.05;4.85;;;;;;;;;;5072756;28;20059;-75
2022/04/27 04:20:05;;;;;;;5.85;4.43;;;;;;;;;;5073313;28;20075;-76
2022/04/27 04:22:48;;;;;;;7.72;4.93;;;;;;;;;;5072352;28;20498;-75
2022/04/27 04:28:32;;;;;;;4.78;3.83;;;;;;;;;;5073452;28;19927;-76
2022/04/27 04:31:02;;;;;;;6.80;4.20;;;;;;;;;;5073335;28;20548;-78
2022/04/27 04:33:42;;;;;;;5.95;4.22;;;;;;;;;;5074656;28;20048;-76
2022/04/27 04:36:14;;;;;;;5.18;3.78;;;;;;;;;;5073100;28;20049;-76
2022/04/27 04:38:45;;;;;;;6.35;3.83;;;;;;;;;;5073346;28;20147;-77
2022/04/27 04:41:22;;;;;;;7.43;3.97;;;;;;;;;;5072495;28;20044;-75
2022/04/27 04:43:54;;;;;;;7.80;4.90;;;;;;;;;;5072838;28;20403;-75
2022/04/27 04:46:29;;;;;;;6.03;4.15;;;;;;;;;;5073808;28;20075;-75
2022/04/27 04:49:19;;;;;;;6.90;4.43;;;;;;;;;;5074104;28;20032;-75
2022/04/27 04:52:22;;;;;;;5.22;3.95;;;;;;;;;;5040323;28;20060;-75
2022/04/27 04:58:41;;;;;;;5.97;3.85;;;;;;;;;;5052921;28;20395;-76
2022/04/27 05:01:47;;;;;;;6.93;4.63;;;;;;;;;;5072313;28;20040;-74
2022/04/27 05:04:52;;;;;;;7.73;4.20;;;;;;;;;;5074125;28;20390;-75
2022/04/27 05:07:44;;;;;;;7.15;5.20;;;;;;;;;;5069537;28;20114;-75
2022/04/27 05:10:37;;;;;;;5.63;4.22;;;;;;;;;;5074192;28;20520;-76
2022/04/27 05:13:13;;;;;;;6.85;4.10;;;;;;;;;;5072918;28;20106;-76
2022/04/27 05:15:59;;;;;;;7.97;4.60;;;;;;;;;;5072892;28;20068;-76
2022/04/27 05:18:47;;;;;;;7.93;4.15;;;;;;;;;;5073716;28;20063;-74
2022/04/27 05:21:44;;;;;;;7.03;4.38;;;;;;;;;;5073515;28;20136;-76
2022/04/27 05:24:31;;;;;;;6.95;4.20;;;;;;;;;;5062369;28;20061;-76
2022/04/27 05:27:24;;;;;;;5.07;3.97;;;;;;;;;;5072480;28;20052;-75
2022/04/27 05:33:18;;;;;;;6.70;4.80;;;;;;;;;;5070008;28;19934;-75
2022/04/27 05:36:13;;;;;;;5.40;4.30;;;;;;;;;;5072022;28;20049;-75
2022/04/27 05:38:59;;;;;;;7.13;4.07;;;;;;;;;;5072557;28;20140;-76
2022/04/27 05:41:50;;;;;;;6.80;4.20;;;;;;;;;;5073422;28;20064;-75
2022/04/27 05:44:51;;;;;;;8.70;4.60;;;;;;;;;;5059048;28;20431;-75
2022/04/27 05:47:35;;;;;;;6.32;3.90;;;;;;;;;;5072194;28;20044;-74
2022/04/27 05:50:20;;;;;;;5.43;3.58;;;;;;;;;;5073027;28;20043;-74
2022/04/27 05:53:08;;;;;;;5.43;3.95;;;;;;;;;;5073387;28;20127;-73
2022/04/27 05:55:53;;;;;;;6.88;4.53;;;;;;;;;;5072000;28;20056;-74
2022/04/27 05:58:25;;;;;;;6.47;4.10;;;;;;;;;;5073898;28;20471;-73
2022/04/27 06:01:07;;;;;;;6.15;4.60;;;;;;;;;;5071874;28;20490;-74
2022/04/27 06:03:48;;;;;;;5.05;3.75;;;;;;;;;;5071719;28;20048;-74
2022/04/27 06:06:18;;;;;;;4.13;3.53;;;;;;;;;;5071854;28;20060;-74
2022/04/27 06:08:51;;;;;;;6.70;5.13;;;;;;;;;;5072935;28;20044;-73
2022/04/27 06:11:26;;;;;;;5.55;3.97;;;;;;;;;;5071966;28;20040;-74
2022/04/27 06:14:17;;;;;;;6.07;3.95;;;;;;;;;;5072561;28;20518;-74
2022/04/27 06:17:14;;;;;;;3.97;3.58;;;;;;;;;;5071347;28;20136;-74
2022/04/27 06:19:47;;;;;;;4.97;3.35;;;;;;;;;;5071797;28;20080;-74
2022/04/27 06:22:15;;;;;;;4.38;3.65;;;;;;;;;;5071659;28;20041;-74
2022/04/27 06:24:43;;;;;;;3.40;3.10;;;;;;;;;;5071620;28;20465;-76
2022/04/27 06:27:42;;;;;;;4.90;3.67;;;;;;;;;;5030584;28;20072;-74
2022/04/27 06:30:10;;;;;;;5.18;3.92;;;;;;;;;;5018964;28;20069;-74
2022/04/27 06:32:39;;;;;;;5.35;4.10;;;;;;;;;;5071685;28;20044;-74
2022/04/27 06:35:13;;;;;;;5.13;3.40;;;;;;;;;;5071957;28;20490;-74
2022/04/27 06:37:46;;;;;;;6.88;3.88;;;;;;;;;;5071523;28;20056;-74
2022/04/27 06:40:19;;;;;;;5.13;4.32;;;;;;;;;;5073127;28;20120;-73
2022/04/27 06:42:49;;;;;;;5.88;3.78;;;;;;;;;;5071411;28;20040;-74
2022/04/27 06:45:36;;;;;;;5.35;3.47;;;;;;;;;;5072434;28;20418;-74
2022/04/27 06:48:33;;;;;;;5.35;3.88;;;;;;;;;;5076425;28;20514;-74
2022/04/27 06:51:19;;;;;;;5.25;4.10;;;;;;;;;;5076289;28;20071;-74
2022/04/27 06:54:07;;;;;;;4.50;3.35;;;;;;;;;;5076701;28;20074;-74
2022/04/27 06:57:12;;;;;;;4.07;3.63;;;;;;;;;;5034361;28;20056;-74
2022/04/27 06:59:54;;;;;;;4.68;3.92;;;;;;;;;;5069470;28;20503;-74
2022/04/27 07:02:22;;;;;;;4.38;3.33;;;;;;;;;;5074851;28;20068;-74
2022/04/27 07:04:59;;;;;;;6.13;3.40;;;;;;;;;;5074657;28;20045;-74
2022/04/27 07:07:31;;;;;;;4.93;3.55;;;;;;;;;;5074646;28;20045;-74
2022/04/27 07:10:07;;;;;;;3.95;3.53;;;;;;;;;;5074889;28;20505;-74
2022/04/27 07:12:59;;;;;;;6.88;3.60;;;;;;;;;;5074520;28;20087;-74
2022/04/27 07:15:27;;;;;;;6.07;3.40;;;;;;;;;;5075555;28;20498;-73
2022/04/27 07:17:56;;;;;;;5.18;3.72;;;;;;;;;;5074494;28;20045;-74
2022/04/27 07:20:28;;;;;;;6.47;3.95;;;;;;;;;;5075907;28;20040;-73
2022/04/27 07:22:57;;;;;;;5.95;3.97;;;;;;;;;;5075972;28;20032;-76
2022/04/27 07:25:27;;;;;;;4.70;3.63;;;;;;;;;;5074252;28;20465;-74
2022/04/27 07:27:59;;;;;;;4.63;3.30;;;;;;;;;;5074851;28;20036;-76
2022/04/27 07:30:27;;;;;;;6.35;3.42;;;;;;;;;;5075815;28;20090;-76
2022/04/27 07:32:57;;;;;;;6.38;3.75;;;;;;;;;;5057855;28;20549;-75
2022/04/27 07:35:27;;;;;;;6.10;4.00;;;;;;;;;;5074210;28;20041;-74
2022/04/27 07:37:55;;;;;;;5.00;3.92;;;;;;;;;;5075421;28;20043;-74
2022/04/27 07:40:22;;;;;;;5.75;3.50;;;;;;;;;;5075790;28;20067;-74
2022/04/27 07:42:50;;;;;;;4.40;3.30;;;;;;;;;;5075624;28;20109;-74
2022/04/27 07:45:18;;;;;;;3.40;2.97;;;;;;;;;;5074843;28;20102;-74
2022/04/27 07:48:10;;;;;;;5.28;3.67;;;;;;;;;;5075338;28;20372;-74
2022/04/27 07:50:43;;;;;;;6.57;3.30;;;;;;;;;;5074135;28;20139;-74
2022/04/27 07:53:11;;;;;;;8.55;3.58;;;;;;;;;;5073856;28;20127;-74
2022/04/27 07:55:42;;;;;;;4.32;3.30;;;;;;;;;;5075099;28;20040;-74
2022/04/27 07:58:26;;;;;;;5.40;3.50;;;;;;;;;;5075256;28;20033;-74
2022/04/27 08:00:54;;;;;;;5.75;3.42;;;;;;;;;;5073653;28;20051;-74
2022/04/27 08:03:25;;;;;;;6.75;3.60;;;;;;;;;;5074439;28;20517;-74
2022/04/27 08:05:56;;;;;;;11.90;10.48;;;;;;;;;;5073672;28;20052;-74
2022/04/27 08:08:30;;;;;;;5.55;4.85;;;;;;;;;;5073663;28;20139;-74
2022/04/27 08:10:59;;;;;;;4.15;3.42;;;;;;;;;;5074927;28;20036;-74
2022/04/27 08:13:29;;;;;;;4.20;3.03;;;;;;;;;;5074641;28;20064;-74
2022/04/27 08:16:01;;;;;;;3.97;3.17;;;;;;;;;;5075273;28;20040;-75
2022/04/27 08:18:34;;;;;;;6.57;3.40;;;;;;;;;;5073136;28;20406;-74
2022/04/27 08:21:14;;;;;;;3.72;3.10;;;;;;;;;;5074853;28;20049;-74
2022/04/27 08:23:47;;;;;;;7.18;3.40;;;;;;;;;;5074788;28;20131;-74
2022/04/27 08:26:16;;;;;;;6.00;3.20;;;;;;;;;;5074496;28;20490;-74
2022/04/27 08:28:46;;;;;;;6.00;3.50;;;;;;;;;;5073007;28;20040;-73
2022/04/27 08:31:20;;;;;;;5.47;2.88;;;;;;;;;;5075080;28;20044;-74
2022/04/27 08:33:49;;;;;;;4.60;3.15;;;;;;;;;;5074440;28;20392;-75
2022/04/27 08:36:20;;;;;;;5.35;3.22;;;;;;;;;;5074120;28;20053;-74
2022/04/27 08:38:59;;;;;;;6.00;3.30;;;;;;;;;;5074271;28;20075;-75
2022/04/27 08:41:52;;;;;;;4.68;3.80;;;;;;;;;;5074411;28;20051;-74
2022/04/27 08:44:45;;;;;;;4.53;3.67;;;;;;;;;;5072946;28;20490;-76
2022/04/27 08:47:19;;;;;;;5.35;3.10;;;;;;;;;;5074182;28;20049;-75
2022/04/27 08:49:51;;;;;;;6.22;3.42;;;;;;;;;;5072818;28;20483;-75
2022/04/27 08:52:23;;;;;;;6.10;3.28;;;;;;;;;;5074034;28;20036;-75
2022/04/27 08:54:54;;;;;;;6.05;3.80;;;;;;;;;;5072758;28;20135;-76
2022/04/27 08:57:27;;;;;;;4.85;4.13;;;;;;;;;;5073984;28;20098;-75
2022/04/27 08:59:56;;;;;;;8.07;3.88;;;;;;;;;;5072787;28;20463;-77
2022/04/27 09:02:52;;;;;;;3.97;2.90;;;;;;;;;;5072678;28;20048;-75
2022/04/27 09:05:26;;;;;;;6.00;3.40;;;;;;;;;;5075603;28;20040;-75
2022/04/27 09:07:57;;;;;;;5.88;3.28;;;;;;;;;;5072342;28;20079;-76
2022/04/27 09:10:50;;;;;;;5.28;3.08;;;;;;;;;;5073044;28;20459;-76
2022/04/27 09:13:44;;;;;;;4.35;2.85;;;;;;;;;;5072486;28;20041;-76
2022/04/27 09:16:12;;;;;;;5.88;3.15;;;;;;;;;;5073866;28;20044;-77
2022/04/27 09:21:55;;;;;;;6.18;3.22;;;;;;;;;;5073803;28;20047;-76
2022/04/27 09:24:25;;;;;;;5.63;2.83;;;;;;;;;;5072130;28;20080;-76
2022/04/27 09:27:23;;;;;;;4.80;3.30;;;;;;;;;;5073830;28;20032;-76
2022/04/27 09:30:03;;;;;;;3.40;3.00;;;;;;;;;;5065367;28;20106;-76
2022/04/27 09:32:31;;;;;;;5.35;2.90;;;;;;;;;;5072334;28;20037;-76
2022/04/27 09:35:24;;;;;;;4.50;2.70;;;;;;;;;;5073124;28;20048;-76
2022/04/27 09:37:52;;;;;;;6.03;3.05;;;;;;;;;;5073518;28;20118;-76
2022/04/27 09:40:44;;;;;;;4.40;2.50;;;;;;;;;;5073627;28;20069;-76
2022/04/27 09:43:16;;;;;;;5.47;2.78;;;;;;;;;;5055769;28;20132;-77
2022/04/27 09:45:44;;;;;;;7.40;2.95;;;;;;;;;;5055038;28;20088;-76
2022/04/27 09:48:37;;;;;;;6.20;3.20;;;;;;;;;;5073019;28;20048;-76
2022/04/27 09:51:12;;;;;;;3.88;2.40;;;;;;;;;;5071863;28;20135;-76
2022/04/27 09:53:45;;;;;;;3.88;2.30;;;;;;;;;;5072313;28;20045;-76
2022/04/27 09:56:38;;;;;;;4.70;2.90;;;;;;;;;;5071670;28;20045;-75
2022/04/27 09:59:13;;;;;;;5.38;2.60;;;;;;;;;;5073276;28;20067;-74
2022/04/27 10:01:50;;;;;;;3.30;2.40;;;;;;;;;;5073249;28;20086;-76
2022/04/27 10:04:20;;;;;;;3.78;2.50;;;;;;;;;;5073528;28;20071;-77
2022/04/27 10:06:51;;;;;;;4.05;2.38;;;;;;;;;;5073579;28;20047;-76
2022/04/27 10:09:20;;;;;;;5.97;2.22;;;;;;;;;;5072339;28;20566;-76
2022/04/27 10:12:13;;;;;;;2.58;2.25;;;;;;;;;;5071757;28;20051;-76
2022/04/27 10:14:50;;;;;;;5.45;2.45;;;;;;;;;;5073369;28;20483;-76
2022/04/27 10:17:19;;;;;;;4.40;2.13;;;;;;;;;;5071688;28;20467;-76
2022/04/27 10:19:50;;;;;;;10.07;3.40;;;;;;;;;;5071529;28;20063;-76
2022/04/27 10:22:34;;;;;;;5.05;3.05;;;;;;;;;;5075689;28;20102;-76
2022/04/27 10:25:10;;;;;;;3.75;2.45;;;;;;;;;;5076891;28;20487;-76
2022/04/27 10:27:42;;;;;;;3.50;2.40;;;;;;;;;;5075449;28;20044;-76
2022/04/27 10:30:13;;;;;;;4.35;2.10;;;;;;;;;;5076677;28;20068;-76
2022/04/27 10:33:07;;;;;;;5.50;2.22;;;;;;;;;;5075449;28;20086;-74
2022/04/27 10:35:36;;;;;;;4.50;2.40;;;;;;;;;;5076826;28;20068;-76
2022/04/27 10:38:05;;;;;;;5.88;2.30;;;;;;;;;;5075074;28;20094;-76
2022/04/27 10:40:40;;;;;;;3.25;2.20;;;;;;;;;;5076453;28;20051;-74
2022/04/27 10:43:26;;;;;;;5.28;2.30;;;;;;;;;;5076678;28;20486;-75
2022/04/27 10:45:54;;;;;;;2.72;2.22;;;;;;;;;;5076478;28;20068;-75
2022/04/27 10:48:48;;;;;;;6.32;2.35;;;;;;;;;;5076150;28;20041;-75
2022/04/27 10:51:18;;;;;;;5.28;2.70;;;;;;;;;;5075061;28;20045;-75
2022/04/27 10:54:10;;;;;;;4.70;3.00;;;;;;;;;;5076354;28;20449;-74
2022/04/27 10:57:03;;;;;;;3.45;2.00;;;;;;;;;;5076549;28;20403;-75
2022/04/27 10:59:54;;;;;;;4.40;1.95;;;;;;;;;;5076452;28;20067;-75
2022/04/27 11:02:44;;;;;;;4.38;2.38;;;;;;;;;;5075117;28;20132;-75
2022/04/27 11:05:13;;;;;;;4.57;2.33;;;;;;;;;;5058487;28;20414;-75
2022/04/27 11:07:55;;;;;;;3.60;2.00;;;;;;;;;;5076328;28;20043;-75
2022/04/27 11:10:27;;;;;;;2.70;1.67;;;;;;;;;;5076200;28;20550;-74
2022/04/27 11:12:57;;;;;;;4.57;2.38;;;;;;;;;;5058106;28;20451;-75
2022/04/27 11:15:25;;;;;;;5.15;2.20;;;;;;;;;;5075517;28;20041;-75
2022/04/27 11:18:03;;;;;;;4.28;2.10;;;;;;;;;;5058236;28;20048;-75
2022/04/27 11:20:39;;;;;;;4.50;1.80;;;;;;;;;;5074724;28;20040;-75
2022/04/27 11:23:10;;;;;;;3.50;2.20;;;;;;;;;;5075798;28;20123;-75
2022/04/27 11:25:40;;;;;;;3.80;2.30;;;;;;;;;;5074571;28;20041;-76
2022/04/27 11:28:13;;;;;;;3.38;1.73;;;;;;;;;;5074550;28;20048;-75
2022/04/27 11:30:40;;;;;;;3.55;1.95;;;;;;;;;;5075723;28;20497;-75
2022/04/27 11:33:11;;;;;;;6.10;2.28;;;;;;;;;;5073674;28;20063;-75
2022/04/27 11:35:50;;;;;;;4.97;2.05;;;;;;;;;;5074424;28;20049;-75
2022/04/27 11:38:20;;;;;;;4.03;2.00;;;;;;;;;;5074313;28;20037;-75
2022/04/27 11:40:52;;;;;;;3.95;2.13;;;;;;;;;;5075613;28;20498;-77
2022/04/27 11:43:27;;;;;;;5.43;2.03;;;;;;;;;;5076030;28;20068;-75
2022/04/27 11:45:56;;;;;;;3.78;1.77;;;;;;;;;;5075265;28;20053;-75
2022/04/27 11:48:48;;;;;;;3.53;1.75;;;;;;;;;;5073909;28;20045;-75
2022/04/27 11:51:17;;;;;;;3.15;1.80;;;;;;;;;;5075314;28;20044;-76
2022/04/27 11:53:49;;;;;;;3.40;2.33;;;;;;;;;;5074116;28;20422;-75
2022/04/27 11:56:21;;;;;;;5.25;2.38;;;;;;;;;;5073881;28;20076;-75
2022/04/27 11:58:51;;;;;;;3.60;1.73;;;;;;;;;;5075532;28;20047;-76
2022/04/27 12:01:24;;;;;;;3.80;2.28;;;;;;;;;;5075133;28;20040;-75
2022/04/27 12:03:56;;;;;;;7.72;2.80;;;;;;;;;;5074025;28;20128;-75
2022/04/27 12:06:28;;;;;;;6.07;2.92;;;;;;;;;;5074763;28;20040;-75
2022/04/27 12:09:04;;;;;;;6.07;2.78;;;;;;;;;;5074870;28;20075;-78
2022/04/27 12:11:31;;;;;;;5.85;2.45;;;;;;;;;;5073516;28;20407;-74
2022/04/27 12:13:59;;;;;;;3.90;2.10;;;;;;;;;;5074569;28;20044;-75
2022/04/27 12:16:30;;;;;;;6.80;2.15;;;;;;;;;;5074717;28;20042;-75
2022/04/27 12:19:02;;;;;;;6.18;2.20;;;;;;;;;;5073563;28;20135;-75
2022/04/27 12:21:31;;;;;;;4.90;2.10;;;;;;;;;;5075208;28;20068;-75
2022/04/27 12:24:14;;;;;;;3.95;2.10;;;;;;;;;;5074278;28;20040;-77
2022/04/27 12:26:50;;;;;;;3.80;1.95;;;;;;;;;;5073338;28;20574;-76
2022/04/27 12:29:17;;;;;;;3.80;2.00;;;;;;;;;;5073537;28;20485;-75
2022/04/27 12:31:45;;;;;;;6.25;1.58;;;;;;;;;;5072788;28;20503;-75
2022/04/27 12:40:33;;;;;;;6.22;2.05;;;;;;;;;;5074189;28;20454;-75
2022/04/27 12:43:01;;;;;;;6.00;1.88;;;;;;;;;;5072662;28;20083;-75
2022/04/27 12:45:29;;;;;;;3.17;1.88;;;;;;;;;;5071156;28;20060;-75
2022/04/27 12:48:27;;;;;;;5.28;1.70;;;;;;;;;;5074448;28;20041;-75
2022/04/27 12:50:55;;;;;;;6.30;2.15;;;;;;;;;;5074330;28;20546;-74
2022/04/27 12:53:22;;;;;;;4.00;1.85;;;;;;;;;;5072734;28;20052;-75
2022/04/27 12:56:15;;;;;;;3.67;1.98;;;;;;;;;;5072704;28;20051;-75
2022/04/27 12:59:01;;;;;;;4.07;1.80;;;;;;;;;;5072700;28;20072;-75
2022/04/27 13:01:29;;;;;;;4.47;2.28;;;;;;;;;;5074055;28;20052;-74
2022/04/27 13:04:22;;;;;;;5.65;2.00;;;;;;;;;;5073937;28;20048;-75
2022/04/27 13:07:15;;;;;;;4.43;2.00;;;;;;;;;;5073932;28;20480;-75
2022/04/27 13:12:56;;;;;;;3.50;2.10;;;;;;;;;;5073717;28;20119;-75
2022/04/27 13:15:25;;;;;;;3.35;1.90;;;;;;;;;;5073391;28;20041;-75
2022/04/27 13:17:57;;;;;;;5.45;2.10;;;;;;;;;;5072414;28;20086;-75
2022/04/27 13:20:27;;;;;;;3.00;1.85;;;;;;;;;;5073675;28;20044;-75
2022/04/27 13:22:57;;;;;;;3.72;2.20;;;;;;;;;;5073424;28;20437;-75
2022/04/27 13:25:26;;;;;;;5.93;3.15;;;;;;;;;;5073561;28;20048;-74
2022/04/27 13:27:59;;;;;;;5.30;2.08;;;;;;;;;;5073481;28;20036;-75
2022/04/27 13:30:28;;;;;;;4.22;1.75;;;;;;;;;;5072088;28;20047;-75
2022/04/27 13:32:56;;;;;;;3.47;1.90;;;;;;;;;;5072894;28;20490;-75
2022/04/27 13:35:29;;;;;;;4.90;2.50;;;;;;;;;;5073239;28;20040;-76
2022/04/27 13:37:59;;;;;;;7.45;2.05;;;;;;;;;;5071919;28;20399;-76
2022/04/27 13:40:32;;;;;;;4.18;1.77;;;;;;;;;;5073344;28;20048;-77
2022/04/27 13:42:59;;;;;;;5.95;1.90;;;;;;;;;;5072003;28;20052;-76
2022/04/27 13:45:27;;;;;;;5.03;2.30;;;;;;;;;;5071576;28;20050;-76
2022/04/27 13:48:02;;;;;;;6.22;2.70;;;;;;;;;;5072046;28;20041;-76
2022/04/27 13:50:29;;;;;;;6.57;2.80;;;;;;;;;;5072831;28;20044;-75
2022/04/27 13:53:02;;;;;;;2.67;1.98;;;;;;;;;;5073357;28;20044;-76
2022/04/27 13:55:47;;;;;;;5.03;1.65;;;;;;;;;;5071643;28;20090;-75
2022/04/27 13:58:59;;;;;;;5.03;2.00;;;;;;;;;;5072836;28;20048;-76
2022/04/27 14:01:28;;;;;;;5.20;2.08;;;;;;;;;;5073571;28;20124;-75
2022/04/27 14:03:56;;;;;;;3.40;1.90;;;;;;;;;;5071323;28;20055;-75
2022/04/27 14:06:51;;;;;;;4.32;1.98;;;;;;;;;;5072822;28;20120;-75
2022/04/27 14:09:19;;;;;;;2.30;1.70;;;;;;;;;;5072153;28;20049;-75
2022/04/27 14:15:23;;;;;;;3.92;1.90;;;;;;;;;;5071582;28;20490;-77
2022/04/27 14:18:13;;;;;;;7.40;2.40;;;;;;;;;;5072709;28;20055;-76
2022/04/27 14:20:44;;;;;;;8.63;2.33;;;;;;;;;;5072984;28;20041;-75
2022/04/27 14:23:16;;;;;;;4.82;1.80;;;;;;;;;;5073069;28;20116;-77
2022/04/27 14:28:55;;;;;;;7.88;4.93;;;;;;;;;;5061754;28;20040;-76
2022/04/27 14:31:23;;;;;;;5.32;2.42;;;;;;;;;;5060065;28;20033;-75
2022/04/27 14:33:54;;;;;;;4.38;1.77;;;;;;;;;;5064699;28;20036;-75
2022/04/27 14:36:22;;;;;;;4.78;1.88;;;;;;;;;;5057310;28;20028;-75
2022/04/27 14:38:50;;;;;;;3.63;2.13;;;;;;;;;;5057336;28;20041;-75
2022/04/27 14:41:18;;;;;;;3.50;1.80;;;;;;;;;;5068350;28;20491;-75
2022/04/27 14:43:47;;;;;;;3.45;1.80;;;;;;;;;;5057775;28;20082;-76
2022/04/27 14:46:17;;;;;;;5.60;2.95;;;;;;;;;;5057835;28;20052;-76
2022/04/27 14:48:47;;;;;;;6.65;2.60;;;;;;;;;;5051527;28;20045;-75
2022/04/27 14:51:16;;;;;;;3.72;1.80;;;;;;;;;;5052384;28;20045;-74
2022/04/27 14:53:44;;;;;;;7.50;3.10;;;;;;;;;;5051286;28;20075;-75
2022/04/27 14:56:13;;;;;;;5.68;2.50;;;;;;;;;;5051371;28;20048;-74
2022/04/27 14:58:41;;;;;;;5.85;3.03;;;;;;;;;;5069223;28;20047;-79
2022/04/27 15:01:12;;;;;;;12.30;6.53;;;;;;;;;;5071033;28;20051;-79
2022/04/27 15:03:40;;;;;;;11.43;5.30;;;;;;;;;;5070810;28;20045;-80
2022/04/27 15:06:09;;;;;;;5.63;3.10;;;;;;;;;;5068845;28;20117;-81
2022/04/27 15:08:37;;;;;;;14.73;5.85;;;;;;;;;;5075351;28;20036;-82
2022/04/27 15:11:07;;;;;;;23.88;2.90;;;;;;;;;;5074838;28;20062;-83
2022/04/27 15:13:39;;;;;;;15.65;6.38;;;;;;;;;;5075855;28;20086;-82
2022/04/27 15:16:11;;;;;;;25.73;13.98;;;;;;;;;;5075867;28;20044;-82
2022/04/27 15:18:44;;;;;;;15.88;8.93;;;;;;;;;;5075938;28;20040;-83
2022/04/27 15:24:00;;;;;;;4.25;2.15;;;;;;;;;;5074341;28;20052;-82
2022/04/27 15:29:14;;;;;;;4.15;1.60;;;;;;;;;;5070824;28;20468;-81
2022/04/27 15:31:41;;;;;;;4.43;2.10;;;;;;;;;;5070260;28;20368;-80
2022/04/27 15:34:09;;;;;;;5.10;2.35;;;;;;;;;;5076564;28;20044;-81
2022/04/27 15:36:39;;;;;;;6.82;2.10;;;;;;;;;;5076861;28;20069;-84
2022/04/27 15:39:09;;;;;;;5.25;2.63;;;;;;;;;;5077032;28;20045;-82
2022/04/27 15:41:37;;;;;;;5.78;2.35;;;;;;;;;;5076273;28;20036;-84
2022/04/27 15:44:11;;;;;;;11.77;4.63;;;;;;;;;;5076985;28;20188;-82
2022/04/27 15:46:41;;;;;;;;;;;;;;;;;;5077070;28;20041;-83
2022/04/27 15:49:33;;;;;;;6.88;2.75;;;;;;;;;;5076290;28;19920;-80
2022/04/27 15:52:07;;;;;;;4.10;2.22;;;;;;;;;;5076205;28;20048;-81
2022/04/27 15:54:34;;;;;;;8.07;2.53;;;;;;;;;;5075624;28;20060;-81
2022/04/27 15:57:04;;;;;;;5.05;2.38;;;;;;;;;;5075816;28;20037;-80
2022/04/27 15:59:34;;;;;;;6.50;2.30;;;;;;;;;;5076115;28;20119;-81
2022/04/27 16:02:03;;;;;;;4.78;1.90;;;;;;;;;;5076018;28;20052;-80
2022/04/27 16:04:32;;;;;;;6.97;2.70;;;;;;;;;;5075999;28;20040;-84
2022/04/27 16:07:00;;;;;;;6.22;2.17;;;;;;;;;;5074459;28;20116;-80
2022/04/27 16:09:29;;;;;;;4.45;1.90;;;;;;;;;;5074742;28;20048;-82
2022/04/27 16:12:02;;;;;;;5.88;2.33;;;;;;;;;;5075793;28;20491;-82
2022/04/27 16:14:34;;;;;;;5.75;2.10;;;;;;;;;;5076333;28;20143;-82
2022/04/27 16:17:06;;;;;;;5.55;2.30;;;;;;;;;;5075476;28;20032;-81
2022/04/27 16:19:35;;;;;;;5.47;1.95;;;;;;;;;;5076532;28;20047;-80
2022/04/27 16:24:53;;;;;;;8.73;2.30;;;;;;;;;;5075805;28;20048;-80
2022/04/27 16:27:22;;;;;;;6.18;2.25;;;;;;;;;;5075058;28;20063;-80
2022/04/27 16:29:53;;;;;;;5.35;2.25;;;;;;;;;;5077498;28;20047;-80
2022/04/27 16:32:42;;;;;;;5.47;2.75;;;;;;;;;;5075984;28;20093;-82
2022/04/27 16:35:16;;;;;;;7.60;3.00;;;;;;;;;;5075188;28;20473;-80